Time;durP1;ratioP1;P1;durP2;ratioP2;P2;SDS_P1;SDS_P2;PMS_P1;PMS_P2;Temp;Humidity;BMP_temperature;BMP_pressure;BME280_temperature;BME280_humidity;BME280_pressure;Samples;Min_cycle;Max_cycle;Signal;HPM_P1;HPM_P2
2022/08/23 00:01:29;;;;;;;6.30;3.55;;;13.00;99.90;;;;;;5055824;28;20029;-83
2022/08/23 00:03:58;;;;;;;5.68;3.65;;;12.80;99.90;;;;;;5054583;28;20116;-83
2022/08/23 00:06:24;;;;;;;5.40;3.70;;;12.70;99.90;;;;;;5056037;28;20025;-84
2022/08/23 00:08:51;;;;;;;5.68;3.97;;;12.60;99.90;;;;;;5051205;28;20683;-84
2022/08/23 00:11:26;;;;;;;7.20;4.70;;;12.40;99.90;;;;;;5050125;28;20091;-83
2022/08/23 00:13:52;;;;;;;5.40;3.70;;;12.40;99.90;;;;;;5051846;28;20048;-84
2022/08/23 00:16:17;;;;;;;5.60;3.45;;;12.30;99.90;;;;;;5055795;28;20470;-84
2022/08/23 00:18:45;;;;;;;5.95;3.92;;;12.30;99.90;;;;;;5046626;28;20041;-83
2022/08/23 00:21:12;;;;;;;6.13;4.15;;;12.30;99.90;;;;;;5041957;28;20048;-84
2022/08/23 00:23:38;;;;;;;6.47;3.55;;;12.30;99.90;;;;;;5055473;28;20100;-84
2022/08/23 00:26:04;;;;;;;6.60;3.90;;;12.30;99.90;;;;;;5054223;28;20121;-83
2022/08/23 00:28:30;;;;;;;7.22;4.28;;;12.30;99.90;;;;;;5055550;28;20377;-84
2022/08/23 00:30:56;;;;;;;6.18;3.88;;;12.30;99.90;;;;;;5055534;28;20066;-84
2022/08/23 00:33:22;;;;;;;5.80;3.70;;;12.40;99.90;;;;;;5054137;28;20025;-84
2022/08/23 00:35:47;;;;;;;5.80;3.53;;;12.40;99.90;;;;;;5041336;28;20416;-84
2022/08/23 00:38:14;;;;;;;9.63;3.88;;;12.40;99.90;;;;;;5054962;28;20075;-83
2022/08/23 00:40:42;;;;;;;7.47;3.55;;;12.30;99.90;;;;;;5055365;28;20028;-83
2022/08/23 00:48:50;;;;;;;5.93;4.50;;;12.30;99.90;;;;;;5040703;28;20047;-84
2022/08/23 00:51:21;;;;;;;5.65;4.10;;;12.30;99.90;;;;;;5054556;28;20078;-84
2022/08/23 00:53:54;;;;;;;6.53;3.83;;;12.30;99.90;;;;;;5055094;28;20028;-83
2022/08/23 00:56:23;;;;;;;5.30;3.97;;;12.30;99.90;;;;;;5055137;28;20021;-83
2022/08/23 00:58:49;;;;;;;8.05;4.18;;;12.30;99.90;;;;;;5054885;28;20017;-83
2022/08/23 01:01:16;;;;;;;4.85;3.40;;;12.30;99.90;;;;;;5054807;28;20021;-83
2022/08/23 01:03:45;;;;;;;7.78;4.22;;;12.30;99.90;;;;;;5054686;28;20021;-84
2022/08/23 01:06:20;;;;;;;4.00;3.40;;;12.20;99.90;;;;;;5054097;28;20025;-84
2022/08/23 01:08:51;;;;;;;5.05;3.75;;;12.20;99.90;;;;;;5054394;28;20025;-84
2022/08/23 01:11:35;;;;;;;7.15;3.60;;;12.20;99.90;;;;;;5054616;28;20027;-84
2022/08/23 01:14:16;;;;;;;5.57;4.07;;;12.10;99.90;;;;;;5059119;28;20028;-84
2022/08/23 01:17:20;;;;;;;6.40;4.43;;;12.10;99.90;;;;;;5060542;28;20114;-84
2022/08/23 01:19:52;;;;;;;6.22;4.10;;;12.00;99.90;;;;;;5039783;28;20039;-84
2022/08/23 01:22:39;;;;;;;6.30;4.13;;;12.00;99.90;;;;;;5054375;28;20009;-84
2022/08/23 01:25:08;;;;;;;9.05;4.95;;;11.90;99.90;;;;;;5054526;28;20374;-84
2022/08/23 01:27:34;;;;;;;4.65;4.00;;;11.90;99.90;;;;;;5054362;28;20327;-84
2022/08/23 01:30:00;;;;;;;5.35;4.10;;;11.80;99.90;;;;;;5054167;28;20374;-83
2022/08/23 01:32:26;;;;;;;7.97;4.35;;;11.80;99.90;;;;;;5054306;28;20025;-84
2022/08/23 01:34:51;;;;;;;6.38;4.15;;;11.80;99.90;;;;;;5054095;28;20056;-83
2022/08/23 01:37:19;;;;;;;10.52;4.30;;;11.70;99.90;;;;;;5053887;28;20398;-84
2022/08/23 01:39:45;;;;;;;6.93;4.47;;;11.70;99.90;;;;;;5053605;28;20058;-83
2022/08/23 01:42:11;;;;;;;7.60;4.80;;;11.70;99.90;;;;;;5054206;28;20099;-84
2022/08/23 01:44:39;;;;;;;6.47;4.60;;;11.70;99.90;;;;;;5052728;28;20017;-84
2022/08/23 01:47:06;;;;;;;8.77;4.55;;;11.70;99.90;;;;;;5053802;28;20025;-83
2022/08/23 01:49:33;;;;;;;6.40;4.13;;;11.70;99.90;;;;;;5053811;28;20025;-83
2022/08/23 01:51:59;;;;;;;6.75;5.50;;;11.60;99.90;;;;;;5059789;28;20036;-84
2022/08/23 01:54:24;;;;;;;8.68;4.60;;;11.60;99.90;;;;;;5054000;28;20025;-84
2022/08/23 01:56:50;;;;;;;7.22;4.25;;;11.60;99.90;;;;;;5054114;28;20079;-84
2022/08/23 01:59:16;;;;;;;6.18;3.92;;;11.60;99.90;;;;;;5040639;28;20030;-84
2022/08/23 02:01:41;;;;;;;5.75;4.22;;;11.60;99.90;;;;;;5052416;28;20350;-84
2022/08/23 02:04:07;;;;;;;7.38;4.40;;;11.60;99.90;;;;;;5053571;28;20092;-84
2022/08/23 02:06:33;;;;;;;7.72;4.38;;;11.60;99.90;;;;;;5036036;28;20065;-83
2022/08/23 02:09:01;;;;;;;6.95;4.43;;;11.60;99.90;;;;;;5041847;28;20029;-84
2022/08/23 02:11:34;;;;;;;5.25;4.22;;;11.60;99.90;;;;;;5053497;28;20024;-84
2022/08/23 02:14:04;;;;;;;6.38;4.32;;;11.60;99.90;;;;;;5053696;28;20053;-84
2022/08/23 02:16:34;;;;;;;5.45;4.80;;;11.60;99.90;;;;;;5053461;28;20029;-84
2022/08/23 02:19:01;;;;;;;7.78;4.70;;;11.60;99.90;;;;;;5053444;28;20067;-83
2022/08/23 02:21:30;;;;;;;6.65;4.20;;;11.60;99.90;;;;;;5053580;28;20024;-84
2022/08/23 02:23:57;;;;;;;7.28;4.40;;;11.60;99.90;;;;;;5053789;28;20036;-83
2022/08/23 02:26:23;;;;;;;6.88;4.20;;;11.60;99.90;;;;;;5042593;28;20683;-84
2022/08/23 02:28:50;;;;;;;4.65;4.07;;;11.60;99.90;;;;;;5053504;28;20029;-84
2022/08/23 02:31:17;;;;;;;5.03;3.88;;;11.50;99.90;;;;;;5053317;28;20025;-84
2022/08/23 02:33:42;;;;;;;4.28;3.53;;;11.50;99.90;;;;;;5053465;28;20078;-84
2022/08/23 02:36:08;;;;;;;6.72;4.35;;;11.50;99.90;;;;;;5045029;28;20861;-84
2022/08/23 02:38:36;;;;;;;6.35;4.10;;;11.50;99.90;;;;;;5047064;28;20028;-83
2022/08/23 02:41:01;;;;;;;6.57;4.65;;;11.50;99.90;;;;;;5053229;28;20013;-84
2022/08/23 02:43:27;;;;;;;8.23;4.40;;;11.50;99.90;;;;;;5052824;28;20041;-83
2022/08/23 02:45:52;;;;;;;7.35;4.30;;;11.50;99.90;;;;;;5052734;28;20339;-84
2022/08/23 02:48:18;;;;;;;8.07;3.97;;;11.40;99.90;;;;;;5052795;28;20025;-84
2022/08/23 02:50:44;;;;;;;7.00;4.40;;;11.40;99.90;;;;;;5052510;28;20056;-84
2022/08/23 02:53:09;;;;;;;7.22;3.72;;;11.30;99.90;;;;;;5052792;28;20033;-83
2022/08/23 02:55:35;;;;;;;4.68;3.80;;;11.30;99.90;;;;;;5053087;28;20075;-83
2022/08/23 02:58:00;;;;;;;7.70;5.05;;;11.20;99.90;;;;;;5052653;28;20033;-84
2022/08/23 03:00:26;;;;;;;6.93;4.50;;;11.20;99.90;;;;;;5053073;28;20104;-84
2022/08/23 03:02:52;;;;;;;6.18;4.22;;;11.10;99.90;;;;;;5053077;28;20021;-83
2022/08/23 03:05:18;;;;;;;6.35;4.35;;;11.10;99.90;;;;;;5052582;28;20025;-83
2022/08/23 03:07:44;;;;;;;8.48;4.95;;;11.10;99.90;;;;;;5052322;28;20024;-83
2022/08/23 03:10:10;;;;;;;6.22;4.25;;;11.10;99.90;;;;;;5051601;28;20028;-84
2022/08/23 03:12:36;;;;;;;8.65;4.78;;;11.00;99.90;;;;;;5042377;28;20032;-84
2022/08/23 03:15:03;;;;;;;5.85;4.82;;;11.00;99.90;;;;;;5056093;28;20631;-83
2022/08/23 03:17:29;;;;;;;7.65;5.15;;;11.00;99.90;;;;;;5047618;28;20025;-84
2022/08/23 03:19:54;;;;;;;5.97;4.80;;;11.00;99.90;;;;;;5056304;28;20033;-84
2022/08/23 03:22:22;;;;;;;7.82;4.70;;;11.00;99.90;;;;;;5056083;28;20024;-84
2022/08/23 03:24:47;;;;;;;6.60;4.43;;;11.00;99.90;;;;;;5056040;28;20494;-84
2022/08/23 03:27:13;;;;;;;8.30;4.68;;;11.00;99.90;;;;;;5056046;28;20025;-83
2022/08/23 03:29:39;;;;;;;6.93;4.47;;;11.00;99.90;;;;;;5056106;28;20033;-83
2022/08/23 03:32:07;;;;;;;7.07;4.28;;;10.90;99.90;;;;;;5056287;28;20043;-84
2022/08/23 03:34:33;;;;;;;7.55;4.78;;;10.90;99.90;;;;;;5056430;28;20031;-83
2022/08/23 03:36:59;;;;;;;5.53;4.88;;;10.90;99.90;;;;;;5056180;28;20112;-83
2022/08/23 03:39:25;;;;;;;7.10;4.68;;;10.90;99.90;;;;;;5053387;28;20396;-83
2022/08/23 03:41:51;;;;;;;8.73;5.10;;;10.80;99.90;;;;;;5056520;28;20082;-83
2022/08/23 03:44:16;;;;;;;7.82;5.35;;;10.80;99.90;;;;;;5049777;28;20025;-83
2022/08/23 03:46:42;;;;;;;6.38;5.30;;;10.80;99.90;;;;;;5047155;28;20051;-83
2022/08/23 03:49:07;;;;;;;7.07;5.07;;;10.80;99.90;;;;;;5055771;28;20129;-83
2022/08/23 03:51:33;;;;;;;8.45;5.30;;;10.80;99.90;;;;;;5055843;28;20051;-83
2022/08/23 03:54:00;;;;;;;8.27;5.63;;;10.80;99.90;;;;;;5056127;28;20025;-83
2022/08/23 03:56:35;;;;;;;7.38;5.53;;;10.80;99.90;;;;;;5055971;28;20039;-83
2022/08/23 03:59:02;;;;;;;;;;;10.80;99.90;;;;;;5056519;28;20033;-83
2022/08/23 04:01:28;;;;;;;6.57;4.97;;;10.80;99.90;;;;;;5055801;28;20419;-83
2022/08/23 04:03:54;;;;;;;6.35;4.95;;;10.80;99.90;;;;;;5055784;28;20021;-83
2022/08/23 04:06:19;;;;;;;7.60;4.85;;;10.80;99.90;;;;;;5053206;28;20036;-83
2022/08/23 04:08:45;;;;;;;7.35;4.97;;;10.80;99.90;;;;;;5055196;28;20017;-83
2022/08/23 04:11:13;;;;;;;8.82;5.15;;;10.80;99.90;;;;;;5050763;28;20028;-83
2022/08/23 04:13:39;;;;;;;7.70;4.97;;;10.80;99.90;;;;;;5053706;28;20413;-83
2022/08/23 04:16:06;;;;;;;6.32;4.95;;;10.80;99.90;;;;;;5055314;28;20056;-81
2022/08/23 04:18:32;;;;;;;9.20;5.00;;;10.80;99.90;;;;;;5049267;28;20029;-82
2022/08/23 04:21:01;;;;;;;6.57;4.70;;;10.80;99.90;;;;;;5056707;28;20119;-82
2022/08/23 04:23:27;;;;;;;9.35;4.75;;;10.90;99.90;;;;;;5053542;28;20072;-80
2022/08/23 04:25:55;;;;;;;7.45;5.00;;;10.80;99.90;;;;;;5060035;28;20075;-81
2022/08/23 04:28:21;;;;;;;8.15;4.55;;;10.90;99.90;;;;;;5065685;28;20052;-81
2022/08/23 04:30:48;;;;;;;9.57;4.88;;;10.80;99.90;;;;;;5063194;28;20087;-81
2022/08/23 04:33:14;;;;;;;7.25;4.57;;;10.80;99.90;;;;;;5056575;28;20033;-81
2022/08/23 04:35:42;;;;;;;5.53;4.50;;;10.80;99.90;;;;;;5058260;28;20385;-81
2022/08/23 04:38:08;;;;;;;6.22;4.65;;;10.80;99.90;;;;;;5060534;28;20028;-80
2022/08/23 04:43:18;;;;;;;7.88;4.65;;;10.80;99.90;;;;;;5058352;28;20444;-81
2022/08/23 04:45:44;;;;;;;6.97;4.95;;;10.70;99.90;;;;;;5047968;28;20025;-81
2022/08/23 04:48:09;;;;;;;8.63;4.55;;;10.70;99.90;;;;;;5050564;28;20021;-81
2022/08/23 04:50:35;;;;;;;8.88;5.15;;;10.70;99.90;;;;;;5050861;28;20798;-81
2022/08/23 04:53:02;;;;;;;6.43;4.57;;;10.70;99.90;;;;;;5048529;28;20029;-80
2022/08/23 04:55:31;;;;;;;5.38;4.75;;;10.80;99.90;;;;;;5051725;28;20029;-83
2022/08/23 04:57:58;;;;;;;7.30;4.50;;;10.80;99.90;;;;;;5052900;28;20013;-82
2022/08/23 05:00:23;;;;;;;6.38;4.28;;;10.80;99.90;;;;;;5055985;28;20091;-82
2022/08/23 05:02:49;;;;;;;12.27;5.57;;;10.80;99.90;;;;;;5054017;28;20028;-81
2022/08/23 05:05:15;;;;;;;31.33;8.02;;;10.90;99.90;;;;;;5058308;28;20020;-81
2022/08/23 05:07:41;;;;;;;26.50;6.35;;;10.90;99.90;;;;;;5054420;28;20037;-74
2022/08/23 05:10:14;;;;;;;13.82;5.50;;;11.00;99.90;;;;;;5066901;28;20024;-81
2022/08/23 05:12:40;;;;;;;9.00;5.28;;;11.00;99.90;;;;;;5052042;28;20056;-81
2022/08/23 05:15:08;;;;;;;16.33;6.05;;;11.10;99.90;;;;;;5056020;28;20032;-83
2022/08/23 05:17:36;;;;;;;24.58;6.85;;;11.10;99.90;;;;;;5044657;28;20034;-82
2022/08/23 05:20:04;;;;;;;14.55;5.32;;;11.20;99.90;;;;;;5056540;28;20078;-83
2022/08/23 05:22:32;;;;;;;20.95;5.10;;;11.30;99.90;;;;;;5059839;28;20020;-83
2022/08/23 05:24:58;;;;;;;17.10;5.13;;;11.30;99.90;;;;;;5056382;28;20029;-83
2022/08/23 05:27:24;;;;;;;9.65;4.68;;;11.40;99.90;;;;;;5059992;28;20496;-83
2022/08/23 05:29:53;;;;;;;17.30;5.35;;;11.40;99.90;;;;;;5056567;28;20029;-83
2022/08/23 05:32:19;;;;;;;9.30;4.68;;;11.50;99.90;;;;;;5039423;28;20013;-83
2022/08/23 05:34:45;;;;;;;14.00;4.95;;;11.60;99.90;;;;;;5063819;28;20042;-83
2022/08/23 05:37:11;;;;;;;25.67;7.45;;;11.60;99.90;;;;;;5051075;28;20549;-82
2022/08/23 05:39:36;;;;;;;30.67;6.45;;;11.70;99.90;;;;;;5052194;28;20036;-83
2022/08/23 05:42:03;;;;;;;26.33;6.15;;;11.70;99.90;;;;;;5052262;28;20021;-82
2022/08/23 05:44:29;;;;;;;22.40;5.70;;;11.80;99.90;;;;;;5054248;28;20419;-83
2022/08/23 05:46:54;;;;;;;16.00;4.88;;;11.90;99.90;;;;;;5054217;28;20100;-82
2022/08/23 05:49:20;;;;;;;10.30;5.38;;;12.00;99.90;;;;;;5054055;28;20155;-83
2022/08/23 05:51:45;;;;;;;11.85;4.57;;;12.20;99.90;;;;;;5053841;28;20029;-83
2022/08/23 05:54:11;;;;;;;14.90;4.93;;;12.20;99.90;;;;;;5054035;28;20063;-82
2022/08/23 05:56:41;;;;;;;10.50;5.00;;;12.40;99.90;;;;;;5087032;22;20077;-81
2022/08/23 05:59:10;;;;;;;9.60;4.97;;;12.50;99.90;;;;;;5033285;28;20461;-82
2022/08/23 06:01:38;;;;;;;10.70;4.65;;;12.60;99.90;;;;;;5020235;28;20013;-83
2022/08/23 06:04:06;;;;;;;8.63;4.57;;;12.80;99.90;;;;;;5020328;28;20022;-83
2022/08/23 06:06:33;;;;;;;8.05;4.60;;;13.00;99.90;;;;;;5014905;28;20683;-83
2022/08/23 06:08:59;;;;;;;6.28;4.50;;;13.10;99.90;;;;;;5029025;28;20112;-83
2022/08/23 06:11:27;;;;;;;7.45;4.50;;;13.20;99.90;;;;;;5029302;28;20112;-83
2022/08/23 06:13:55;;;;;;;7.28;4.60;;;13.40;99.90;;;;;;5028937;28;20033;-83
2022/08/23 06:16:26;;;;;;;7.40;4.65;;;13.50;99.90;;;;;;5030095;28;20018;-83
2022/08/23 06:18:54;;;;;;;7.35;4.63;;;13.70;99.90;;;;;;5027652;28;20105;-83
2022/08/23 06:21:20;;;;;;;8.98;5.03;;;13.80;99.90;;;;;;5017948;28;20059;-83
2022/08/23 06:23:47;;;;;;;6.05;4.90;;;13.90;99.90;;;;;;5029596;28;20409;-83
2022/08/23 06:26:20;;;;;;;5.90;4.00;;;14.10;99.90;;;;;;5029053;28;20017;-83
2022/08/23 06:28:47;;;;;;;7.78;4.35;;;14.20;99.90;;;;;;5028235;28;20727;-81
2022/08/23 06:31:13;;;;;;;6.65;4.28;;;14.30;99.90;;;;;;5029905;28;20037;-81
2022/08/23 06:33:41;;;;;;;6.88;4.47;;;14.40;99.90;;;;;;5029170;28;20040;-82
2022/08/23 06:36:16;;;;;;;5.65;4.05;;;14.50;99.90;;;;;;5029254;28;20075;-81
2022/08/23 06:38:43;;;;;;;6.88;4.38;;;14.60;99.90;;;;;;5016788;28;20033;-81
2022/08/23 06:41:11;;;;;;;6.28;3.97;;;14.70;99.90;;;;;;5029254;28;20109;-81
2022/08/23 06:43:38;;;;;;;6.25;4.10;;;14.80;99.90;;;;;;5029576;28;20021;-81
2022/08/23 06:46:18;;;;;;;7.43;4.25;;;15.00;99.90;;;;;;5030902;28;20030;-81
2022/08/23 06:48:47;;;;;;;6.30;4.18;;;15.10;99.90;;;;;;5027962;28;20493;-81
2022/08/23 06:51:22;;;;;;;6.78;3.78;;;15.20;99.90;;;;;;5028773;28;20029;-81
2022/08/23 06:53:48;;;;;;;7.25;3.95;;;15.40;99.90;;;;;;5027494;28;20179;-80
2022/08/23 06:56:14;;;;;;;8.18;4.18;;;15.50;99.90;;;;;;5026685;28;20041;-81
2022/08/23 06:58:40;;;;;;;7.90;4.10;;;15.60;99.90;;;;;;5025458;28;20040;-81
2022/08/23 07:01:38;;;;;;;7.18;4.20;;;15.70;99.90;;;;;;5029493;28;20106;-80
2022/08/23 07:04:06;;;;;;;5.50;3.65;;;15.80;99.90;;;;;;5011232;28;20620;-81
2022/08/23 07:06:32;;;;;;;6.00;4.00;;;15.80;99.90;;;;;;5027988;28;20396;-80
2022/08/23 07:08:58;;;;;;;6.53;3.60;;;15.90;99.90;;;;;;5028795;28;20147;-80
2022/08/23 07:11:25;;;;;;;6.25;3.40;;;16.00;99.90;;;;;;5031025;28;20075;-81
2022/08/23 07:13:51;;;;;;;5.72;3.67;;;16.10;99.90;;;;;;5029196;28;20040;-81
2022/08/23 07:16:18;;;;;;;6.40;3.80;;;16.20;99.90;;;;;;5029564;28;20026;-81
2022/08/23 07:18:48;;;;;;;5.80;3.47;;;16.30;99.90;;;;;;5028120;28;20018;-81
2022/08/23 07:21:14;;;;;;;8.68;3.70;;;16.40;99.90;;;;;;5028936;28;20032;-81
2022/08/23 07:23:39;;;;;;;6.22;3.50;;;16.50;99.90;;;;;;5008621;28;20017;-83
2022/08/23 07:26:11;;;;;;;6.93;3.50;;;16.60;99.90;;;;;;5031047;28;20045;-83
2022/08/23 07:28:38;;;;;;;7.35;4.20;;;16.70;99.90;;;;;;5027632;28;20474;-83
2022/08/23 07:31:11;;;;;;;6.53;3.83;;;16.80;99.90;;;;;;5026928;28;20025;-82
2022/08/23 07:33:38;;;;;;;9.05;3.92;;;16.80;99.90;;;;;;5025633;28;20546;-82
2022/08/23 07:36:05;;;;;;;4.80;3.65;;;16.90;99.90;;;;;;5026972;28;20045;-83
2022/08/23 07:38:31;;;;;;;8.52;4.60;;;17.00;99.90;;;;;;5032764;28;20533;-80
2022/08/23 07:40:57;;;;;;;6.47;3.28;;;17.00;99.90;;;;;;5032626;28;20108;-81
2022/08/23 07:43:23;;;;;;;8.35;3.72;;;17.10;99.90;;;;;;5032726;28;20366;-81
2022/08/23 07:45:49;;;;;;;7.25;3.70;;;17.20;99.90;;;;;;5028472;28;20025;-81
2022/08/23 07:48:15;;;;;;;6.82;3.30;;;17.30;99.90;;;;;;5028485;28;20056;-82
2022/08/23 07:50:40;;;;;;;5.22;3.03;;;17.40;99.90;;;;;;5032257;28;20017;-83
2022/08/23 07:53:06;;;;;;;8.40;3.40;;;17.50;99.90;;;;;;5045390;28;20033;-82
2022/08/23 07:55:33;;;;;;;8.95;3.95;;;17.60;99.90;;;;;;5052647;28;20033;-83
2022/08/23 07:57:59;;;;;;;4.13;2.65;;;17.70;99.90;;;;;;5037216;28;20025;-83
2022/08/23 08:00:24;;;;;;;6.20;3.30;;;17.80;99.90;;;;;;5037556;28;20072;-82
2022/08/23 08:02:50;;;;;;;11.32;3.63;;;17.90;99.90;;;;;;5016796;28;20106;-83
2022/08/23 08:05:16;;;;;;;5.47;3.00;;;18.00;99.90;;;;;;5032302;28;20022;-83
2022/08/23 08:07:42;;;;;;;4.93;3.10;;;18.10;99.90;;;;;;5052305;28;20026;-83
2022/08/23 08:10:08;;;;;;;5.85;3.40;;;18.20;99.90;;;;;;5049226;28;20489;-83
2022/08/23 08:12:33;;;;;;;6.35;3.42;;;18.30;99.90;;;;;;5056378;28;20025;-83
2022/08/23 08:14:59;;;;;;;6.25;3.00;;;18.40;99.90;;;;;;5056243;28;20035;-83
2022/08/23 08:17:24;;;;;;;4.78;3.03;;;18.40;99.90;;;;;;5055908;28;20025;-83
2022/08/23 08:19:50;;;;;;;6.90;3.40;;;18.60;99.90;;;;;;5055560;28;20046;-83
2022/08/23 08:22:15;;;;;;;9.75;3.10;;;18.60;99.90;;;;;;5036102;28;20026;-83
2022/08/23 08:24:42;;;;;;;6.65;3.00;;;18.60;99.90;;;;;;5046489;28;20100;-82
2022/08/23 08:27:07;;;;;;;5.53;3.00;;;18.80;99.90;;;;;;5018015;28;20026;-83
2022/08/23 08:29:35;;;;;;;5.10;3.05;;;18.90;99.90;;;;;;5035879;28;20474;-82
2022/08/23 08:32:01;;;;;;;8.13;3.17;;;19.00;99.90;;;;;;5039713;28;20037;-83
2022/08/23 08:34:27;;;;;;;5.07;2.90;;;19.10;99.90;;;;;;5036022;28;20021;-83
2022/08/23 08:36:54;;;;;;;6.25;3.20;;;19.10;99.90;;;;;;5035303;28;20029;-83
2022/08/23 08:39:24;;;;;;;4.38;2.92;;;19.10;99.90;;;;;;5055998;28;20013;-83
2022/08/23 08:42:10;;;;;;;5.60;3.40;;;19.10;99.90;;;;;;5055283;28;20017;-83
2022/08/23 08:44:56;;;;;;;6.95;3.58;;;19.20;99.90;;;;;;5023291;28;20028;-83
2022/08/23 08:47:35;;;;;;;5.70;2.50;;;19.30;99.90;;;;;;5038226;28;20030;-83
2022/08/23 08:50:16;;;;;;;5.90;2.88;;;19.40;99.90;;;;;;5037246;28;20174;-82
2022/08/23 08:52:47;;;;;;;6.50;2.80;;;19.70;99.90;;;;;;5036306;28;20026;-82
2022/08/23 08:55:23;;;;;;;4.05;2.30;;;19.70;99.90;;;;;;5035019;28;20026;-83
2022/08/23 08:57:50;;;;;;;6.40;2.65;;;19.80;99.90;;;;;;5034707;28;20021;-83
2022/08/23 09:00:29;;;;;;;5.40;2.35;;;19.90;99.90;;;;;;5030850;28;20088;-82
2022/08/23 09:02:58;;;;;;;5.80;2.25;;;20.10;99.90;;;;;;5034585;28;20040;-83
2022/08/23 09:05:33;;;;;;;4.95;2.10;;;20.20;99.90;;;;;;5033632;28;20025;-83
2022/08/23 09:07:58;;;;;;;;;;;20.30;99.90;;;;;;5033778;28;20049;-83
2022/08/23 09:10:42;;;;;;;4.68;1.90;;;20.40;99.90;;;;;;5029964;28;19905;-83
2022/08/23 09:13:26;;;;;;;4.90;2.10;;;20.60;99.90;;;;;;5018341;28;20026;-84
2022/08/23 09:16:21;;;;;;;6.18;1.85;;;20.90;99.90;;;;;;5028866;28;20036;-83
2022/08/23 09:18:47;;;;;;;5.13;2.28;;;21.00;99.90;;;;;;5032992;28;20143;-82
2022/08/23 09:21:14;;;;;;;4.40;2.22;;;21.30;99.90;;;;;;5032698;28;20494;-83
2022/08/23 09:23:44;;;;;;;6.07;2.08;;;21.50;99.90;;;;;;5032968;28;20417;-83
2022/08/23 09:26:22;;;;;;;5.65;2.60;;;21.70;99.90;;;;;;5032982;28;20024;-83
2022/08/23 09:28:50;;;;;;;5.38;2.17;;;22.00;99.90;;;;;;5031757;28;20025;-84
2022/08/23 09:31:43;;;;;;;4.40;2.20;;;22.10;99.90;;;;;;5032708;28;20029;-83
2022/08/23 09:34:16;;;;;;;5.18;1.88;;;22.30;99.90;;;;;;5036323;28;20017;-83
2022/08/23 09:36:41;;;;;;;5.25;2.10;;;22.60;99.90;;;;;;5028137;28;20025;-83
2022/08/23 09:39:24;;;;;;;5.22;2.00;;;22.70;99.90;;;;;;5032654;28;20018;-83
2022/08/23 09:41:50;;;;;;;7.85;1.80;;;23.10;99.90;;;;;;5035111;28;20041;-83
2022/08/23 09:44:36;;;;;;;3.70;1.80;;;23.30;99.90;;;;;;5030586;28;20352;-83
2022/08/23 09:47:10;;;;;;;5.47;2.10;;;23.40;99.90;;;;;;5032362;28;20037;-83
2022/08/23 09:49:36;;;;;;;6.15;2.13;;;23.40;99.90;;;;;;5031953;28;20057;-84
2022/08/23 09:52:24;;;;;;;5.20;1.80;;;23.50;99.90;;;;;;5016341;28;20582;-83
2022/08/23 09:54:59;;;;;;;4.55;1.75;;;23.70;99.90;;;;;;5034292;28;20470;-86
2022/08/23 09:57:27;;;;;;;3.72;1.70;;;24.00;99.90;;;;;;5034194;28;20136;-86
2022/08/23 09:59:59;;;;;;;5.00;2.20;;;24.20;99.90;;;;;;5033315;28;20036;-86
2022/08/23 10:02:31;;;;;;;5.25;1.85;;;24.40;99.90;;;;;;5034635;28;20112;-86
2022/08/23 10:05:17;;;;;;;5.03;2.00;;;24.40;99.90;;;;;;5034090;28;20079;-86
2022/08/23 10:07:54;;;;;;;6.80;2.38;;;24.20;99.90;;;;;;5036030;28;20032;-70
2022/08/23 10:10:46;;;;;;;6.85;1.77;;;24.20;99.90;;;;;;5053514;28;20021;-71
2022/08/23 10:13:13;;;;;;;5.15;2.42;;;24.30;99.90;;;;;;5022574;28;20041;-71
2022/08/23 10:15:59;;;;;;;4.93;2.03;;;24.40;99.90;;;;;;5040969;28;20035;-71
2022/08/23 10:18:44;;;;;;;3.63;1.98;;;24.40;99.90;;;;;;5039119;28;20059;-71
2022/08/23 10:21:34;;;;;;;4.97;1.75;;;24.70;99.90;;;;;;5053463;28;20025;-71
2022/08/23 10:24:06;;;;;;;5.95;2.10;;;24.90;99.90;;;;;;5018788;28;20045;-71
2022/08/23 10:26:34;;;;;;;3.10;1.85;;;25.00;99.90;;;;;;5030353;28;20025;-71
2022/08/23 10:29:36;;;;;;;4.25;1.90;;;24.90;99.90;;;;;;5033382;28;20083;-71
2022/08/23 10:32:13;;;;;;;3.53;1.70;;;25.00;99.90;;;;;;5035217;28;20029;-78
2022/08/23 10:34:48;;;;;;;4.75;1.83;;;25.10;99.90;;;;;;5040696;28;20076;-77
2022/08/23 10:37:38;;;;;;;4.10;1.80;;;25.30;99.90;;;;;;5037610;28;20079;-79
2022/08/23 10:40:24;;;;;;;3.38;1.80;;;25.50;99.90;;;;;;5029162;28;20382;-80
2022/08/23 10:42:55;;;;;;;5.20;2.00;;;25.50;99.90;;;;;;5009850;28;20034;-79
2022/08/23 10:45:31;;;;;;;3.42;1.55;;;25.50;99.90;;;;;;5024993;28;20025;-80
2022/08/23 10:48:20;;;;;;;6.45;2.22;;;25.50;99.90;;;;;;5008295;28;20029;-80
2022/08/23 10:50:54;;;;;;;5.72;1.92;;;25.80;99.90;;;;;;5028914;28;20369;-71
2022/08/23 10:53:22;;;;;;;3.90;1.80;;;25.90;99.90;;;;;;5026405;28;20433;-71
2022/08/23 10:56:01;;;;;;;3.50;2.10;;;26.00;99.90;;;;;;5025078;28;20104;-71
2022/08/23 10:58:37;;;;;;;5.40;1.65;;;26.10;99.90;;;;;;5028630;28;20390;-71
2022/08/23 11:01:06;;;;;;;4.30;1.70;;;26.00;99.90;;;;;;5027467;28;20508;-76
2022/08/23 11:03:55;;;;;;;4.65;1.65;;;26.30;99.70;;;;;;5028841;28;20021;-75
2022/08/23 11:06:39;;;;;;;5.00;1.60;;;26.50;98.30;;;;;;5032718;28;20029;-75
2022/08/23 11:09:18;;;;;;;3.92;1.88;;;26.40;98.80;;;;;;5033331;28;20029;-75
2022/08/23 11:12:01;;;;;;;3.63;1.60;;;26.50;97.90;;;;;;5033482;28;20024;-75
2022/08/23 11:14:56;;;;;;;3.72;1.77;;;26.70;98.60;;;;;;5026474;28;20236;-75
2022/08/23 11:17:27;;;;;;;;;;;26.60;98.50;;;;;;5033486;28;20092;-75
2022/08/23 11:19:57;;;;;;;2.72;1.60;;;26.90;95.60;;;;;;5052167;28;19904;-75
2022/08/23 11:22:24;;;;;;;4.93;2.05;;;27.00;99.20;;;;;;5033929;28;20025;-75
2022/08/23 11:24:54;;;;;;;4.72;1.67;;;27.00;94.90;;;;;;5048171;28;20025;-75
2022/08/23 11:27:35;;;;;;;3.13;1.50;;;27.00;95.20;;;;;;5033086;28;20047;-75
2022/08/23 11:30:32;;;;;;;4.82;1.92;;;27.30;94.10;;;;;;5033087;28;20032;-75
2022/08/23 11:33:17;;;;;;;2.10;1.48;;;27.40;92.80;;;;;;5033145;28;20079;-75
2022/08/23 11:36:17;;;;;;;3.03;1.38;;;27.40;91.90;;;;;;5043918;28;20022;-75
2022/08/23 11:38:42;;;;;;;4.47;1.50;;;27.40;92.00;;;;;;5036879;28;20033;-75
2022/08/23 11:41:18;;;;;;;6.68;2.33;;;27.80;91.80;;;;;;5036881;28;20075;-75
2022/08/23 11:44:09;;;;;;;6.72;1.80;;;27.90;92.40;;;;;;5037006;28;20064;-75
2022/08/23 11:46:58;;;;;;;3.80;1.77;;;27.90;92.90;;;;;;5026869;28;20134;-75
2022/08/23 11:49:35;;;;;;;7.35;1.95;;;28.00;90.40;;;;;;5036736;28;20071;-75
2022/08/23 11:52:09;;;;;;;3.30;1.50;;;27.70;91.30;;;;;;5036959;28;20026;-76
2022/08/23 11:55:11;;;;;;;2.53;1.50;;;27.70;92.10;;;;;;5027938;28;20025;-75
2022/08/23 11:58:13;;;;;;;4.43;1.85;;;27.80;90.40;;;;;;5042201;28;20382;-75
2022/08/23 12:01:08;;;;;;;3.72;1.75;;;27.70;93.60;;;;;;5045585;28;20028;-75
2022/08/23 12:03:50;;;;;;;3.45;2.13;;;28.10;89.30;;;;;;5049228;28;20027;-74
2022/08/23 12:06:18;;;;;;;3.72;1.42;;;28.10;90.70;;;;;;5040177;28;20074;-75
2022/08/23 12:08:54;;;;;;;5.55;1.80;;;28.20;89.30;;;;;;5042145;28;20044;-75
2022/08/23 12:11:23;;;;;;;4.28;1.63;;;28.60;88.20;;;;;;5034870;28;20029;-75
2022/08/23 12:13:56;;;;;;;3.58;1.70;;;28.70;86.60;;;;;;5043118;28;20083;-75
2022/08/23 12:16:22;;;;;;;3.33;1.63;;;28.80;84.40;;;;;;5045465;28;20397;-76
2022/08/23 12:18:48;;;;;;;3.00;1.33;;;29.10;85.70;;;;;;5052050;28;20104;-76
2022/08/23 12:21:24;;;;;;;2.92;1.52;;;29.30;81.50;;;;;;5043393;28;20509;-76
2022/08/23 12:23:53;;;;;;;4.60;1.70;;;29.20;81.70;;;;;;5041880;28;20071;-75
2022/08/23 12:26:37;;;;;;;3.05;1.60;;;29.20;82.90;;;;;;5053674;28;20041;-75
2022/08/23 12:29:17;;;;;;;4.47;1.42;;;29.10;82.00;;;;;;5016526;28;20037;-75
2022/08/23 12:32:02;;;;;;;4.93;1.55;;;28.80;78.70;;;;;;5016559;28;20054;-75
2022/08/23 12:34:43;;;;;;;4.75;1.35;;;28.70;80.30;;;;;;5028939;28;20026;-75
2022/08/23 12:37:35;;;;;;;4.28;1.50;;;29.10;79.30;;;;;;5035697;28;20021;-75
2022/08/23 12:40:07;;;;;;;3.95;1.42;;;29.40;82.30;;;;;;5037144;28;20048;-75
2022/08/23 12:42:36;;;;;;;2.55;1.45;;;29.50;75.40;;;;;;5040730;28;20466;-76
2022/08/23 12:45:15;;;;;;;4.07;1.38;;;29.70;80.00;;;;;;5048618;28;20032;-76
2022/08/23 12:47:43;;;;;;;5.60;1.60;;;29.90;77.00;;;;;;5054154;28;20025;-76
2022/08/23 12:50:14;;;;;;;3.33;1.50;;;30.00;76.90;;;;;;5037454;28;20028;-75
2022/08/23 12:52:40;;;;;;;3.83;1.55;;;30.10;74.40;;;;;;5055092;28;20049;-75
2022/08/23 12:55:17;;;;;;;5.00;1.48;;;30.00;73.50;;;;;;5050700;28;20469;-75
2022/08/23 12:57:53;;;;;;;5.10;1.30;;;29.70;73.30;;;;;;5027588;28;20025;-75
2022/08/23 13:00:26;;;;;;;4.85;1.33;;;29.40;76.30;;;;;;5035439;28;20023;-75
2022/08/23 13:03:18;;;;;;;4.67;1.70;;;29.20;77.20;;;;;;5048671;28;20029;-75
2022/08/23 13:05:53;;;;;;;2.65;1.40;;;29.40;74.50;;;;;;5023570;28;20366;-75
2022/08/23 13:08:24;;;;;;;2.70;1.48;;;29.30;74.60;;;;;;5022609;28;20034;-75
2022/08/23 13:10:50;;;;;;;4.53;1.70;;;29.20;72.30;;;;;;5055213;28;20032;-76
2022/08/23 13:13:22;;;;;;;2.40;1.50;;;29.10;76.00;;;;;;5042949;28;20100;-75
2022/08/23 13:16:00;;;;;;;3.83;1.50;;;29.10;74.30;;;;;;5037194;28;20021;-75